sensor_id;sensor_type;location;lat;lon;timestamp;pressure;altitude;pressure_sealevel;temperature;humidity
20228;BME280;12195;55.790;37.572;2023-05-23T00:00:13;100130.91;;;14.65;71.70
20228;BME280;12195;55.790;37.572;2023-05-23T00:02:56;100131.42;;;14.58;71.72
20228;BME280;12195;55.790;37.572;2023-05-23T00:05:29;100131.42;;;14.58;71.72
20228;BME280;12195;55.790;37.572;2023-05-23T00:08:12;100136.46;;;14.75;72.20
20228;BME280;12195;55.790;37.572;2023-05-23T00:10:58;100139.30;;;14.72;72.22
20228;BME280;12195;55.790;37.572;2023-05-23T00:13:30;100130.30;;;14.48;72.06
20228;BME280;12195;55.790;37.572;2023-05-23T00:16:18;100133.89;;;14.47;71.96
20228;BME280;12195;55.790;37.572;2023-05-23T00:18:51;100133.89;;;14.47;71.96
20228;BME280;12195;55.790;37.572;2023-05-23T00:21:37;100132.30;;;14.44;71.80
20228;BME280;12195;55.790;37.572;2023-05-23T00:24:09;100132.30;;;14.44;71.80
20228;BME280;12195;55.790;37.572;2023-05-23T00:26:52;100105.14;;;14.28;71.64
20228;BME280;12195;55.790;37.572;2023-05-23T00:29:24;100105.14;;;14.28;71.64
20228;BME280;12195;55.790;37.572;2023-05-23T00:32:09;100132.25;;;14.58;72.01
20228;BME280;12195;55.790;37.572;2023-05-23T00:34:41;100139.95;;;14.35;71.80
20228;BME280;12195;55.790;37.572;2023-05-23T00:37:25;100139.44;;;14.56;72.01
20228;BME280;12195;55.790;37.572;2023-05-23T00:39:58;100132.98;;;14.34;71.92
20228;BME280;12195;55.790;37.572;2023-05-23T00:42:42;100137.27;;;14.49;72.21
20228;BME280;12195;55.790;37.572;2023-05-23T00:45:15;100140.53;;;14.26;72.04
20228;BME280;12195;55.790;37.572;2023-05-23T00:47:58;100134.27;;;14.41;72.52
20228;BME280;12195;55.790;37.572;2023-05-23T00:50:31;100127.02;;;14.16;72.40
20228;BME280;12195;55.790;37.572;2023-05-23T00:53:14;100142.77;;;14.32;72.81
20228;BME280;12195;55.790;37.572;2023-05-23T00:55:48;100137.30;;;14.07;72.68
20228;BME280;12195;55.790;37.572;2023-05-23T00:58:32;100138.94;;;14.23;73.20
20228;BME280;12195;55.790;37.572;2023-05-23T01:01:05;100128.05;;;14.00;72.90
20228;BME280;12195;55.790;37.572;2023-05-23T01:03:47;100139.17;;;14.19;73.21
20228;BME280;12195;55.790;37.572;2023-05-23T01:06:20;100135.14;;;13.99;73.02
20228;BME280;12195;55.790;37.572;2023-05-23T01:09:03;100134.84;;;14.18;73.28
20228;BME280;12195;55.790;37.572;2023-05-23T01:15:09;100129.28;;;14.22;73.02
20228;BME280;12195;55.790;37.572;2023-05-23T01:18:27;100135.25;;;14.26;72.83
20228;BME280;12195;55.790;37.572;2023-05-23T01:21:18;100127.88;;;14.31;72.48
20228;BME280;12195;55.790;37.572;2023-05-23T01:30:16;100120.59;;;14.34;71.97
20228;BME280;12195;55.790;37.572;2023-05-23T01:32:52;100109.27;;;14.18;71.39
20228;BME280;12195;55.790;37.572;2023-05-23T01:35:36;100123.69;;;14.41;71.43
20228;BME280;12195;55.790;37.572;2023-05-23T01:38:10;100116.76;;;14.26;71.12
20228;BME280;12195;55.790;37.572;2023-05-23T01:40:53;100116.13;;;14.49;71.21
20228;BME280;12195;55.790;37.572;2023-05-23T01:43:26;100118.81;;;14.35;70.69
20228;BME280;12195;55.790;37.572;2023-05-23T01:46:09;100122.72;;;14.56;70.81
20228;BME280;12195;55.790;37.572;2023-05-23T01:48:43;100116.62;;;14.41;70.48
20228;BME280;12195;55.790;37.572;2023-05-23T01:51:25;100147.92;;;14.61;70.70
20228;BME280;12195;55.790;37.572;2023-05-23T01:53:59;100119.91;;;14.45;69.95
20228;BME280;12195;55.790;37.572;2023-05-23T01:56:45;100112.51;;;14.64;69.92
20228;BME280;12195;55.790;37.572;2023-05-23T01:59:19;100110.75;;;14.50;69.31
20228;BME280;12195;55.790;37.572;2023-05-23T02:02:04;100110.22;;;14.72;69.48
20228;BME280;12195;55.790;37.572;2023-05-23T02:04:37;100103.27;;;14.57;68.82
20228;BME280;12195;55.790;37.572;2023-05-23T02:07:23;100099.13;;;14.79;69.00
20228;BME280;12195;55.790;37.572;2023-05-23T02:09:56;100105.44;;;14.64;68.31
20228;BME280;12195;55.790;37.572;2023-05-23T02:12:39;100114.29;;;14.90;68.46
20228;BME280;12195;55.790;37.572;2023-05-23T02:15:22;100113.14;;;14.94;68.16
20228;BME280;12195;55.790;37.572;2023-05-23T02:17:55;100103.37;;;14.82;67.27
20228;BME280;12195;55.790;37.572;2023-05-23T02:23:01;100104.73;;;15.14;66.80
20228;BME280;12195;55.790;37.572;2023-05-23T02:25:33;100085.88;;;15.06;66.08
20228;BME280;12195;55.790;37.572;2023-05-23T02:28:17;100092.61;;;15.24;65.02
20228;BME280;12195;55.790;37.572;2023-05-23T02:30:51;100092.61;;;15.24;65.02
20228;BME280;12195;55.790;37.572;2023-05-23T02:33:24;100093.03;;;15.30;64.60
20228;BME280;12195;55.790;37.572;2023-05-23T02:36:08;100100.17;;;15.55;64.91
20228;BME280;12195;55.790;37.572;2023-05-23T02:38:41;100088.20;;;15.37;64.20
20228;BME280;12195;55.790;37.572;2023-05-23T02:41:23;100086.93;;;15.55;64.45
20228;BME280;12195;55.790;37.572;2023-05-23T02:43:57;100082.91;;;15.37;63.61
20228;BME280;12195;55.790;37.572;2023-05-23T02:46:40;100100.17;;;15.55;64.14
20228;BME280;12195;55.790;37.572;2023-05-23T02:49:13;100097.83;;;15.38;63.45
20228;BME280;12195;55.790;37.572;2023-05-23T02:51:55;100100.69;;;15.60;63.86
20228;BME280;12195;55.790;37.572;2023-05-23T02:54:28;100096.57;;;15.43;63.10
20228;BME280;12195;55.790;37.572;2023-05-23T02:57:13;100094.23;;;15.64;63.35
20228;BME280;12195;55.790;37.572;2023-05-23T02:59:46;100089.16;;;15.48;62.64
20228;BME280;12195;55.790;37.572;2023-05-23T03:02:49;100095.52;;;15.71;63.14
20228;BME280;12195;55.790;37.572;2023-05-23T03:05:22;100102.09;;;15.53;62.49
20228;BME280;12195;55.790;37.572;2023-05-23T03:08:07;100104.31;;;15.71;62.98
20228;BME280;12195;55.790;37.572;2023-05-23T03:10:40;100103.67;;;15.55;62.14
20228;BME280;12195;55.790;37.572;2023-05-23T03:13:22;100108.45;;;15.75;62.57
20228;BME280;12195;55.790;37.572;2023-05-23T03:15:55;100109.59;;;15.59;61.90
20228;BME280;12195;55.790;37.572;2023-05-23T03:18:38;100109.93;;;15.79;62.06
20228;BME280;12195;55.790;37.572;2023-05-23T03:21:12;100107.27;;;15.67;61.24
20228;BME280;12195;55.790;37.572;2023-05-23T03:23:56;100087.88;;;15.79;60.47
20228;BME280;12195;55.790;37.572;2023-05-23T03:26:40;100112.20;;;16.09;60.89
20228;BME280;12195;55.790;37.572;2023-05-23T03:29:14;100106.91;;;16.09;59.78
20228;BME280;12195;55.790;37.572;2023-05-23T03:31:58;100095.19;;;16.49;59.63
20228;BME280;12195;55.790;37.572;2023-05-23T03:34:31;100100.49;;;16.49;58.45
20228;BME280;12195;55.790;37.572;2023-05-23T03:37:17;100102.25;;;16.85;58.59
20228;BME280;12195;55.790;37.572;2023-05-23T03:39:50;100092.72;;;16.82;57.88
20228;BME280;12195;55.790;37.572;2023-05-23T03:42:32;100094.69;;;17.15;57.73
20228;BME280;12195;55.790;37.572;2023-05-23T03:45:06;100086.09;;;17.11;56.81
20228;BME280;12195;55.790;37.572;2023-05-23T03:47:49;100086.95;;;17.46;56.86
20228;BME280;12195;55.790;37.572;2023-05-23T03:50:23;100081.16;;;17.41;55.90
20228;BME280;12195;55.790;37.572;2023-05-23T03:53:07;100097.86;;;17.76;55.80
20228;BME280;12195;55.790;37.572;2023-05-23T03:55:40;100084.09;;;17.71;55.09
20228;BME280;12195;55.790;37.572;2023-05-23T03:58:26;100089.30;;;18.06;55.44
20228;BME280;12195;55.790;37.572;2023-05-23T04:01:01;100076.73;;;17.86;54.38
20228;BME280;12195;55.790;37.572;2023-05-23T04:03:45;100078.55;;;18.40;54.61
20228;BME280;12195;55.790;37.572;2023-05-23T04:06:20;100082.03;;;18.41;52.77
20228;BME280;12195;55.790;37.572;2023-05-23T04:09:05;100069.12;;;18.79;53.25
20228;BME280;12195;55.790;37.572;2023-05-23T04:11:39;100071.81;;;18.68;51.92
20228;BME280;12195;55.790;37.572;2023-05-23T04:14:25;100084.55;;;18.96;52.50
20228;BME280;12195;55.790;37.572;2023-05-23T04:17:11;100088.52;;;19.01;52.24
20228;BME280;12195;55.790;37.572;2023-05-23T04:19:54;100082.92;;;18.73;52.94
20228;BME280;12195;55.790;37.572;2023-05-23T04:22:38;100079.98;;;18.87;52.77
20228;BME280;12195;55.790;37.572;2023-05-23T04:25:22;100083.35;;;18.89;52.47
20228;BME280;12195;55.790;37.572;2023-05-23T04:28:12;100087.12;;;18.86;52.56
20228;BME280;12195;55.790;37.572;2023-05-23T04:30:58;100076.84;;;18.82;52.40
20228;BME280;12195;55.790;37.572;2023-05-23T04:33:34;100077.90;;;18.59;51.71
20228;BME280;12195;55.790;37.572;2023-05-23T04:36:18;100073.81;;;18.86;52.19
20228;BME280;12195;55.790;37.572;2023-05-23T04:38:53;100069.12;;;18.79;51.16
20228;BME280;12195;55.790;37.572;2023-05-23T04:41:37;100074.77;;;19.17;51.18
20228;BME280;12195;55.790;37.572;2023-05-23T04:44:33;100068.52;;;19.38;50.98
20228;BME280;12195;55.790;37.572;2023-05-23T04:47:23;100070.39;;;19.47;50.19
20228;BME280;12195;55.790;37.572;2023-05-23T04:50:09;100076.05;;;19.84;49.46
20228;BME280;12195;55.790;37.572;2023-05-23T04:52:42;100069.47;;;19.88;48.21
20228;BME280;12195;55.790;37.572;2023-05-23T04:55:26;100077.12;;;20.32;48.48
20228;BME280;12195;55.790;37.572;2023-05-23T04:57:59;100074.58;;;20.30;47.19
20228;BME280;12195;55.790;37.572;2023-05-23T05:00:43;100076.06;;;20.73;47.17
20228;BME280;12195;55.790;37.572;2023-05-23T05:03:29;100075.30;;;20.91;46.80
20228;BME280;12195;55.790;37.572;2023-05-23T05:06:13;100067.30;;;20.91;46.49
20228;BME280;12195;55.790;37.572;2023-05-23T05:08:58;100076.97;;;21.21;46.49
20228;BME280;12195;55.790;37.572;2023-05-23T05:11:43;100081.20;;;21.04;45.85
20228;BME280;12195;55.790;37.572;2023-05-23T05:14:17;100093.84;;;21.02;45.11
20228;BME280;12195;55.790;37.572;2023-05-23T05:17:01;100090.04;;;21.43;45.55
20228;BME280;12195;55.790;37.572;2023-05-23T05:19:36;100096.25;;;21.24;44.45
20228;BME280;12195;55.790;37.572;2023-05-23T05:22:19;100116.59;;;21.54;45.37
20228;BME280;12195;55.790;37.572;2023-05-23T05:25:03;100104.48;;;21.59;44.98
20228;BME280;12195;55.790;37.572;2023-05-23T05:27:38;100114.64;;;21.46;44.01
20228;BME280;12195;55.790;37.572;2023-05-23T05:30:22;100115.16;;;21.88;44.24
20228;BME280;12195;55.790;37.572;2023-05-23T05:33:08;100109.30;;;22.11;43.78
20228;BME280;12195;55.790;37.572;2023-05-23T05:35:42;100098.64;;;22.02;42.26
20228;BME280;12195;55.790;37.572;2023-05-23T05:38:26;100098.59;;;22.38;42.69
20228;BME280;12195;55.790;37.572;2023-05-23T05:40:59;100105.63;;;22.12;41.99
20228;BME280;12195;55.790;37.572;2023-05-23T05:43:45;100094.25;;;22.37;42.68
20228;BME280;12195;55.790;37.572;2023-05-23T05:46:18;100105.55;;;21.95;42.44
20228;BME280;12195;55.790;37.572;2023-05-23T05:49:03;100097.92;;;22.00;43.13
20228;BME280;12195;55.790;37.572;2023-05-23T05:51:36;100091.00;;;21.42;43.69
20228;BME280;12195;55.790;37.572;2023-05-23T05:54:18;100087.50;;;21.51;44.43
20228;BME280;12195;55.790;37.572;2023-05-23T05:56:51;100082.89;;;21.15;44.72
20228;BME280;12195;55.790;37.572;2023-05-23T05:59:35;100089.19;;;21.42;45.13
20228;BME280;12195;55.790;37.572;2023-05-23T06:02:09;100081.89;;;21.35;44.87
20228;BME280;12195;55.790;37.572;2023-05-23T06:04:52;100087.59;;;21.78;44.78
20228;BME280;12195;55.790;37.572;2023-05-23T06:07:26;100080.56;;;21.77;44.00
20228;BME280;12195;55.790;37.572;2023-05-23T06:10:10;100086.02;;;22.21;43.91
20228;BME280;12195;55.790;37.572;2023-05-23T06:12:47;100076.06;;;22.14;43.22
20228;BME280;12195;55.790;37.572;2023-05-23T06:15:32;100091.36;;;22.58;43.35
20228;BME280;12195;55.790;37.572;2023-05-23T06:18:16;100078.45;;;22.71;43.40
20228;BME280;12195;55.790;37.572;2023-05-23T06:20:49;100070.40;;;22.44;42.81
20228;BME280;12195;55.790;37.572;2023-05-23T06:23:34;100074.77;;;22.72;43.35
20228;BME280;12195;55.790;37.572;2023-05-23T06:26:07;100069.14;;;22.48;42.81
20228;BME280;12195;55.790;37.572;2023-05-23T06:28:41;100061.91;;;22.58;42.38
20228;BME280;12195;55.790;37.572;2023-05-23T06:31:27;100063.52;;;22.86;42.98
20228;BME280;12195;55.790;37.572;2023-05-23T06:34:00;100059.72;;;22.17;43.40
20228;BME280;12195;55.790;37.572;2023-05-23T06:36:33;100057.44;;;22.49;42.86
20228;BME280;12195;55.790;37.572;2023-05-23T06:39:36;100053.66;;;23.04;42.97
20228;BME280;12195;55.790;37.572;2023-05-23T06:42:09;100045.25;;;22.99;41.83
20228;BME280;12195;55.790;37.572;2023-05-23T06:45:14;100044.02;;;23.54;42.06
20228;BME280;12195;55.790;37.572;2023-05-23T06:47:48;100034.05;;;23.64;41.03
20228;BME280;12195;55.790;37.572;2023-05-23T06:50:33;100045.81;;;24.30;40.54
20228;BME280;12195;55.790;37.572;2023-05-23T06:53:06;100036.77;;;24.39;38.95
20228;BME280;12195;55.790;37.572;2023-05-23T06:55:51;100038.05;;;24.84;39.67
20228;BME280;12195;55.790;37.572;2023-05-23T06:58:24;100029.42;;;24.57;38.50
20228;BME280;12195;55.790;37.572;2023-05-23T07:01:09;100032.02;;;24.82;39.58
20228;BME280;12195;55.790;37.572;2023-05-23T07:03:44;100019.67;;;24.48;39.18
20228;BME280;12195;55.790;37.572;2023-05-23T07:06:28;100025.30;;;24.78;39.73
20228;BME280;12195;55.790;37.572;2023-05-23T07:09:13;100019.78;;;24.96;39.19
20228;BME280;12195;55.790;37.572;2023-05-23T07:11:46;100010.54;;;24.98;38.05
20228;BME280;12195;55.790;37.572;2023-05-23T07:14:29;100019.42;;;25.55;38.09
20228;BME280;12195;55.790;37.572;2023-05-23T07:17:02;100009.52;;;25.48;37.50
20228;BME280;12195;55.790;37.572;2023-05-23T07:19:45;100008.89;;;25.92;37.53
20228;BME280;12195;55.790;37.572;2023-05-23T07:22:18;100005.73;;;25.81;36.86
20228;BME280;12195;55.790;37.572;2023-05-23T07:25:02;100009.47;;;26.26;37.25
20228;BME280;12195;55.790;37.572;2023-05-23T07:27:35;100006.84;;;26.10;36.29
20228;BME280;12195;55.790;37.572;2023-05-23T07:30:19;100012.72;;;26.44;36.51
20228;BME280;12195;55.790;37.572;2023-05-23T07:33:05;100010.03;;;26.44;36.55
20228;BME280;12195;55.790;37.572;2023-05-23T07:35:50;100008.66;;;26.48;36.45
20228;BME280;12195;55.790;37.572;2023-05-23T07:38:24;99994.71;;;26.14;35.88
20228;BME280;12195;55.790;37.572;2023-05-23T07:41:08;100002.07;;;26.51;36.58
20228;BME280;12195;55.790;37.572;2023-05-23T07:43:42;99994.13;;;26.27;36.20
20228;BME280;12195;55.790;37.572;2023-05-23T07:46:15;100003.08;;;26.58;36.84
20228;BME280;12195;55.790;37.572;2023-05-23T07:48:58;100007.86;;;26.70;36.35
20228;BME280;12195;55.790;37.572;2023-05-23T07:51:31;99998.35;;;26.52;35.82
20228;BME280;12195;55.790;37.572;2023-05-23T07:54:15;100011.70;;;26.98;36.24
20228;BME280;12195;55.790;37.572;2023-05-23T07:56:48;99999.77;;;26.93;35.64
20228;BME280;12195;55.790;37.572;2023-05-23T07:59:32;100010.42;;;27.31;35.47
20228;BME280;12195;55.790;37.572;2023-05-23T08:02:06;100017.42;;;27.18;34.50
20228;BME280;12195;55.790;37.572;2023-05-23T08:04:50;100020.35;;;27.53;34.79
20228;BME280;12195;55.790;37.572;2023-05-23T08:07:24;100012.73;;;27.20;34.42
20228;BME280;12195;55.790;37.572;2023-05-23T08:10:09;100022.94;;;27.61;35.11
20228;BME280;12195;55.790;37.572;2023-05-23T08:12:42;100020.86;;;27.34;35.16
20228;BME280;12195;55.790;37.572;2023-05-23T08:15:28;100019.87;;;27.64;35.32
20228;BME280;12195;55.790;37.572;2023-05-23T08:18:02;100010.53;;;27.38;35.05
20228;BME280;12195;55.790;37.572;2023-05-23T08:20:45;100021.19;;;27.68;35.42
20228;BME280;12195;55.790;37.572;2023-05-23T08:23:18;100013.23;;;27.38;34.69
20228;BME280;12195;55.790;37.572;2023-05-23T08:26:02;100016.73;;;27.75;35.29
20228;BME280;12195;55.790;37.572;2023-05-23T08:28:36;100018.37;;;27.47;35.10
20228;BME280;12195;55.790;37.572;2023-05-23T08:31:19;100013.30;;;27.96;35.13
20228;BME280;12195;55.790;37.572;2023-05-23T08:33:52;100004.44;;;27.58;34.53
20228;BME280;12195;55.790;37.572;2023-05-23T08:36:34;100006.05;;;27.82;35.56
20228;BME280;12195;55.790;37.572;2023-05-23T08:39:09;100006.87;;;27.68;35.66
20228;BME280;12195;55.790;37.572;2023-05-23T08:41:56;100007.16;;;28.02;35.73
20228;BME280;12195;55.790;37.572;2023-05-23T08:44:30;100002.05;;;27.92;34.79
20228;BME280;12195;55.790;37.572;2023-05-23T08:47:15;100001.16;;;28.35;34.87
20228;BME280;12195;55.790;37.572;2023-05-23T08:49:51;100000.80;;;28.24;34.65
20228;BME280;12195;55.790;37.572;2023-05-23T08:52:47;100002.59;;;28.67;35.05
20228;BME280;12195;55.790;37.572;2023-05-23T08:55:15;99991.65;;;28.39;34.86
20228;BME280;12195;55.790;37.572;2023-05-23T08:57:50;99995.53;;;28.51;34.45
20228;BME280;12195;55.790;37.572;2023-05-23T09:00:38;100003.40;;;29.03;34.65
20228;BME280;12195;55.790;37.572;2023-05-23T09:03:12;99993.12;;;28.56;34.35
20228;BME280;12195;55.790;37.572;2023-05-23T09:06:13;100002.21;;;28.91;35.29
20228;BME280;12195;55.790;37.572;2023-05-23T09:08:58;100010.33;;;28.91;35.04
20228;BME280;12195;55.790;37.572;2023-05-23T09:11:32;99993.42;;;28.47;34.70
20228;BME280;12195;55.790;37.572;2023-05-23T09:14:19;100004.45;;;28.87;35.29
20228;BME280;12195;55.790;37.572;2023-05-23T09:16:59;100003.01;;;28.49;34.81
20228;BME280;12195;55.790;37.572;2023-05-23T09:19:42;100004.91;;;28.91;35.04
20228;BME280;12195;55.790;37.572;2023-05-23T09:22:25;100007.27;;;28.58;35.50
20228;BME280;12195;55.790;37.572;2023-05-23T09:25:12;100007.58;;;29.05;35.85
20228;BME280;12195;55.790;37.572;2023-05-23T09:27:48;100012.30;;;28.82;36.57
20228;BME280;12195;55.790;37.572;2023-05-23T09:30:33;100026.59;;;29.40;36.75
20228;BME280;12195;55.790;37.572;2023-05-23T09:33:06;100021.22;;;29.18;35.81
20228;BME280;12195;55.790;37.572;2023-05-23T09:35:51;100038.88;;;29.63;35.58
20228;BME280;12195;55.790;37.572;2023-05-23T09:38:27;100029.60;;;29.02;35.41
20228;BME280;12195;55.790;37.572;2023-05-23T09:41:11;100029.69;;;29.37;35.65
20228;BME280;12195;55.790;37.572;2023-05-23T09:43:55;100033.38;;;29.29;35.11
20228;BME280;12195;55.790;37.572;2023-05-23T09:46:28;100034.55;;;28.63;35.69
20228;BME280;12195;55.790;37.572;2023-05-23T09:49:16;100038.97;;;28.85;35.90
20228;BME280;12195;55.790;37.572;2023-05-23T09:51:59;100029.95;;;28.28;36.25
20228;BME280;12195;55.790;37.572;2023-05-23T09:54:45;100036.18;;;28.58;35.69
20228;BME280;12195;55.790;37.572;2023-05-23T09:57:18;100033.02;;;27.67;38.59
20228;BME280;12195;55.790;37.572;2023-05-23T10:00:06;100038.23;;;27.69;38.50
20228;BME280;12195;55.790;37.572;2023-05-23T10:08:24;100048.39;;;26.46;43.06
20228;BME280;12195;55.790;37.572;2023-05-23T10:14:09;100050.03;;;26.63;41.13
20228;BME280;12195;55.790;37.572;2023-05-23T10:17:11;100054.19;;;26.35;42.57
20228;BME280;12195;55.790;37.572;2023-05-23T10:19:47;100044.94;;;25.75;42.47
20228;BME280;12195;55.790;37.572;2023-05-23T10:22:30;100049.10;;;26.02;43.05
20228;BME280;12195;55.790;37.572;2023-05-23T10:25:05;100040.62;;;25.50;43.23
20228;BME280;12195;55.790;37.572;2023-05-23T10:27:57;100051.49;;;25.81;44.00
20228;BME280;12195;55.790;37.572;2023-05-23T10:30:28;100035.53;;;24.67;45.35
20228;BME280;12195;55.790;37.572;2023-05-23T10:33:18;100040.63;;;25.42;44.75
20228;BME280;12195;55.790;37.572;2023-05-23T10:36:17;100046.00;;;25.50;44.20
20228;BME280;12195;55.790;37.572;2023-05-23T10:39:14;100050.05;;;25.38;44.48
20228;BME280;12195;55.790;37.572;2023-05-23T10:41:50;100044.61;;;24.82;45.50
20228;BME280;12195;55.790;37.572;2023-05-23T10:44:34;100055.55;;;25.13;45.27
20228;BME280;12195;55.790;37.572;2023-05-23T10:47:08;100051.30;;;24.70;45.46
20228;BME280;12195;55.790;37.572;2023-05-23T10:49:54;100059.56;;;24.92;45.22
20228;BME280;12195;55.790;37.572;2023-05-23T10:52:29;100060.05;;;24.30;47.44
20228;BME280;12195;55.790;37.572;2023-05-23T10:55:14;100058.75;;;24.42;48.23
20228;BME280;12195;55.790;37.572;2023-05-23T10:58:17;100058.81;;;24.17;48.56
20228;BME280;12195;55.790;37.572;2023-05-23T11:01:06;100061.60;;;23.31;53.85
20228;BME280;12195;55.790;37.572;2023-05-23T11:03:51;100072.66;;;23.28;54.31
20228;BME280;12195;55.790;37.572;2023-05-23T11:06:41;100058.16;;;23.03;57.33
20228;BME280;12195;55.790;37.572;2023-05-23T11:09:17;100070.02;;;22.39;58.39
20228;BME280;12195;55.790;37.572;2023-05-23T11:12:05;100069.38;;;22.54;60.34
20228;BME280;12195;55.790;37.572;2023-05-23T11:17:33;100058.68;;;22.27;59.58
20228;BME280;12195;55.790;37.572;2023-05-23T11:20:08;100063.24;;;21.81;60.79
20228;BME280;12195;55.790;37.572;2023-05-23T11:23:00;100060.19;;;22.03;60.20
20228;BME280;12195;55.790;37.572;2023-05-23T11:25:50;100062.50;;;21.88;59.54
20228;BME280;12195;55.790;37.572;2023-05-23T11:28:21;100062.20;;;21.36;60.79
20228;BME280;12195;55.790;37.572;2023-05-23T11:31:07;100064.72;;;21.47;61.67
20228;BME280;12195;55.790;37.572;2023-05-23T11:33:51;100068.09;;;21.30;63.51
20228;BME280;12195;55.790;37.572;2023-05-23T11:36:24;100062.20;;;20.88;63.54
20228;BME280;12195;55.790;37.572;2023-05-23T11:39:08;100071.63;;;21.11;64.14
20228;BME280;12195;55.790;37.572;2023-05-23T11:41:42;100065.70;;;20.79;63.29
20228;BME280;12195;55.790;37.572;2023-05-23T11:44:26;100084.56;;;21.06;61.80
20228;BME280;12195;55.790;37.572;2023-05-23T11:46:59;100073.41;;;20.63;63.74
20228;BME280;12195;55.790;37.572;2023-05-23T11:49:45;100080.30;;;20.85;63.25
20228;BME280;12195;55.790;37.572;2023-05-23T11:52:18;100072.10;;;20.08;65.60
20228;BME280;12195;55.790;37.572;2023-05-23T11:55:01;100077.91;;;20.72;64.63
20228;BME280;12195;55.790;37.572;2023-05-23T11:57:40;100070.00;;;20.51;64.30
20228;BME280;12195;55.790;37.572;2023-05-23T12:00:44;100069.34;;;20.88;63.42
20228;BME280;12195;55.790;37.572;2023-05-23T12:03:18;100059.48;;;20.59;64.02
20228;BME280;12195;55.790;37.572;2023-05-23T12:06:02;100072.47;;;20.93;64.97
20228;BME280;12195;55.790;37.572;2023-05-23T12:08:35;100064.28;;;20.85;64.42
20228;BME280;12195;55.790;37.572;2023-05-23T12:11:19;100065.42;;;21.30;62.85
20228;BME280;12195;55.790;37.572;2023-05-23T12:13:55;100061.92;;;21.29;62.92
20228;BME280;12195;55.790;37.572;2023-05-23T12:16:39;100066.34;;;21.76;60.86
20228;BME280;12195;55.790;37.572;2023-05-23T12:19:15;100059.31;;;21.75;60.01
20228;BME280;12195;55.790;37.572;2023-05-23T12:21:48;100051.91;;;21.96;59.52
20228;BME280;12195;55.790;37.572;2023-05-23T12:24:32;100045.61;;;22.51;57.98
20228;BME280;12195;55.790;37.572;2023-05-23T12:27:16;100048.06;;;22.80;56.74
20228;BME280;12195;55.790;37.572;2023-05-23T12:29:50;100030.03;;;22.82;55.86
20228;BME280;12195;55.790;37.572;2023-05-23T12:32:24;100030.62;;;23.11;55.01
20228;BME280;12195;55.790;37.572;2023-05-23T12:35:11;100034.92;;;23.72;54.35
20228;BME280;12195;55.790;37.572;2023-05-23T12:37:55;100024.39;;;24.04;53.93
20228;BME280;12195;55.790;37.572;2023-05-23T12:40:29;100025.36;;;23.95;52.19
20228;BME280;12195;55.790;37.572;2023-05-23T12:43:14;100023.34;;;24.39;53.19
20228;BME280;12195;55.790;37.572;2023-05-23T12:45:47;100019.28;;;24.27;52.03
20228;BME280;12195;55.790;37.572;2023-05-23T12:48:31;100016.05;;;24.73;51.72
20228;BME280;12195;55.790;37.572;2023-05-23T12:51:13;100017.27;;;25.03;51.26
20228;BME280;12195;55.790;37.572;2023-05-23T12:53:47;100005.66;;;25.02;49.13
20228;BME280;12195;55.790;37.572;2023-05-23T12:56:31;100015.36;;;25.67;49.95
20228;BME280;12195;55.790;37.572;2023-05-23T12:59:04;100012.67;;;25.67;47.88
20228;BME280;12195;55.790;37.572;2023-05-23T13:01:49;100007.77;;;26.25;47.43
20228;BME280;12195;55.790;37.572;2023-05-23T13:04:22;99993.52;;;26.17;46.20
20228;BME280;12195;55.790;37.572;2023-05-23T13:07:05;99988.88;;;26.86;46.27
20228;BME280;12195;55.790;37.572;2023-05-23T13:09:49;99986.34;;;27.07;45.45
20228;BME280;12195;55.790;37.572;2023-05-23T13:12:22;99985.09;;;26.73;44.76
20228;BME280;12195;55.790;37.572;2023-05-23T13:15:07;99987.01;;;27.09;45.06
20228;BME280;12195;55.790;37.572;2023-05-23T13:17:40;99974.03;;;26.68;44.81
20228;BME280;12195;55.790;37.572;2023-05-23T13:20:26;99988.64;;;26.96;45.34
20228;BME280;12195;55.790;37.572;2023-05-23T13:23:02;99977.59;;;25.37;47.86
20228;BME280;12195;55.790;37.572;2023-05-23T13:25:47;99970.99;;;26.10;47.89
20228;BME280;12195;55.790;37.572;2023-05-23T13:28:20;99970.27;;;25.77;46.33
20228;BME280;12195;55.790;37.572;2023-05-23T13:30:53;99975.35;;;26.41;46.57
20228;BME280;12195;55.790;37.572;2023-05-23T13:33:36;99979.56;;;27.11;45.01
20228;BME280;12195;55.790;37.572;2023-05-23T13:36:09;99966.62;;;27.29;42.69
20228;BME280;12195;55.790;37.572;2023-05-23T13:38:51;99976.05;;;28.06;42.88
20228;BME280;12195;55.790;37.572;2023-05-23T13:41:24;99967.95;;;27.77;42.10
20228;BME280;12195;55.790;37.572;2023-05-23T13:44:07;99979.97;;;28.03;42.13
20228;BME280;12195;55.790;37.572;2023-05-23T13:46:41;99974.41;;;27.24;42.38
20228;BME280;12195;55.790;37.572;2023-05-23T13:49:23;99983.45;;;27.31;43.13
20228;BME280;12195;55.790;37.572;2023-05-23T13:51:56;99985.10;;;26.42;44.38
20228;BME280;12195;55.790;37.572;2023-05-23T13:54:28;99982.48;;;26.04;45.06
20228;BME280;12195;55.790;37.572;2023-05-23T13:57:10;99979.88;;;26.18;46.46
20228;BME280;12195;55.790;37.572;2023-05-23T13:59:43;99976.38;;;25.55;46.12
20228;BME280;12195;55.790;37.572;2023-05-23T14:02:27;99974.64;;;25.78;46.62
20228;BME280;12195;55.790;37.572;2023-05-23T14:05:03;99975.42;;;25.24;46.53
20228;BME280;12195;55.790;37.572;2023-05-23T14:07:47;99983.28;;;25.50;46.95
20228;BME280;12195;55.790;37.572;2023-05-23T14:10:31;99981.80;;;25.39;47.19